PAMD METAR and TAF weather

Enter ICAO airport designator
Station Type Date Time Source
PAMD METAR 2020/07/06 22:51 UTC NOAA

PAMD 062251Z AUTO 08008KT 10SM FEW016 BKN023 13/11 A3001 RMK AO2 SLP149 T01280106


Station Type Date Time Source
PAMD Decoded METAR 2020/07/06 22:51 UTC NOAA

Middleton Island, Middleton Island Airport, AK, United States (PAMD) 59-26N 146-18W 14M
Jul 06, 2020 - 06:51 PM EDT / 2020.07.06 2251 UTC
Wind: from the E (080 degrees) at 9 MPH (8 KT):0
Visibility: 10 mile(s):0
Sky conditions: mostly cloudy
Temperature: 55.0 F (12.8 C)
Dew Point: 51.1 F (10.6 C)
Relative Humidity: 86%
Pressure (altimeter): 30.01 in. Hg (1016 hPa)
ob: PAMD 062251Z AUTO 08008KT 10SM FEW016 BKN023 13/11 A3001 RMK AO2 SLP149 T01280106
cycle: 23

Station Type Date Time Source
PAMD TAF UTC NOAA

Error!

Example: see airport list